sensor_id;sensor_type;location;lat;lon;timestamp;P1;durP1;ratioP1;P2;durP2;ratioP2
11829;SDS011;5972;42.134;24.718;2022-12-18T00:02:14;41.95;;;30.05;;
11829;SDS011;5972;42.134;24.718;2022-12-18T00:04:42;41.80;;;30.55;;
11829;SDS011;5972;42.134;24.718;2022-12-18T00:07:09;38.55;;;29.02;;
11829;SDS011;5972;42.134;24.718;2022-12-18T00:09:36;39.95;;;30.58;;
11829;SDS011;5972;42.134;24.718;2022-12-18T00:12:03;41.10;;;29.20;;
11829;SDS011;5972;42.134;24.718;2022-12-18T00:14:30;40.60;;;29.63;;
11829;SDS011;5972;42.134;24.718;2022-12-18T00:16:57;35.53;;;28.10;;
11829;SDS011;5972;42.134;24.718;2022-12-18T00:19:25;37.05;;;27.67;;
11829;SDS011;5972;42.134;24.718;2022-12-18T00:21:54;35.88;;;25.77;;
11829;SDS011;5972;42.134;24.718;2022-12-18T00:24:21;35.75;;;26.77;;
11829;SDS011;5972;42.134;24.718;2022-12-18T00:26:47;33.70;;;25.17;;
11829;SDS011;5972;42.134;24.718;2022-12-18T00:29:14;32.15;;;24.90;;
11829;SDS011;5972;42.134;24.718;2022-12-18T00:31:41;34.30;;;24.52;;
11829;SDS011;5972;42.134;24.718;2022-12-18T00:34:09;32.08;;;23.85;;
11829;SDS011;5972;42.134;24.718;2022-12-18T00:36:36;30.60;;;23.80;;
11829;SDS011;5972;42.134;24.718;2022-12-18T00:39:05;31.17;;;23.92;;
11829;SDS011;5972;42.134;24.718;2022-12-18T00:41:32;33.80;;;25.80;;
11829;SDS011;5972;42.134;24.718;2022-12-18T00:44:16;28.40;;;23.38;;
11829;SDS011;5972;42.134;24.718;2022-12-18T00:46:44;31.25;;;23.80;;
11829;SDS011;5972;42.134;24.718;2022-12-18T00:49:12;31.70;;;24.67;;
11829;SDS011;5972;42.134;24.718;2022-12-18T00:51:40;34.17;;;26.80;;
11829;SDS011;5972;42.134;24.718;2022-12-18T00:54:08;29.85;;;24.10;;
11829;SDS011;5972;42.134;24.718;2022-12-18T00:56:35;28.95;;;25.08;;
11829;SDS011;5972;42.134;24.718;2022-12-18T00:59:03;29.27;;;24.08;;
11829;SDS011;5972;42.134;24.718;2022-12-18T01:01:30;32.42;;;24.90;;
11829;SDS011;5972;42.134;24.718;2022-12-18T01:03:57;33.55;;;25.90;;
11829;SDS011;5972;42.134;24.718;2022-12-18T01:06:25;30.30;;;24.85;;
11829;SDS011;5972;42.134;24.718;2022-12-18T01:08:52;37.90;;;27.67;;
11829;SDS011;5972;42.134;24.718;2022-12-18T01:11:20;33.72;;;25.85;;
11829;SDS011;5972;42.134;24.718;2022-12-18T01:13:47;33.70;;;25.92;;
11829;SDS011;5972;42.134;24.718;2022-12-18T01:16:14;32.08;;;25.38;;
11829;SDS011;5972;42.134;24.718;2022-12-18T01:18:43;34.88;;;27.77;;
11829;SDS011;5972;42.134;24.718;2022-12-18T01:21:10;35.50;;;26.42;;
11829;SDS011;5972;42.134;24.718;2022-12-18T01:23:38;36.67;;;27.33;;
11829;SDS011;5972;42.134;24.718;2022-12-18T01:26:05;38.00;;;25.77;;
11829;SDS011;5972;42.134;24.718;2022-12-18T01:28:34;37.30;;;27.13;;
11829;SDS011;5972;42.134;24.718;2022-12-18T01:31:11;40.50;;;28.88;;
11829;SDS011;5972;42.134;24.718;2022-12-18T01:33:39;47.92;;;28.50;;
11829;SDS011;5972;42.134;24.718;2022-12-18T01:36:06;39.10;;;28.00;;
11829;SDS011;5972;42.134;24.718;2022-12-18T01:38:34;40.67;;;28.25;;
11829;SDS011;5972;42.134;24.718;2022-12-18T01:41:01;39.33;;;26.30;;
11829;SDS011;5972;42.134;24.718;2022-12-18T01:46:13;36.13;;;25.00;;
11829;SDS011;5972;42.134;24.718;2022-12-18T01:48:40;33.30;;;26.27;;
11829;SDS011;5972;42.134;24.718;2022-12-18T01:51:08;31.73;;;23.52;;
11829;SDS011;5972;42.134;24.718;2022-12-18T01:53:36;32.20;;;24.33;;
11829;SDS011;5972;42.134;24.718;2022-12-18T01:56:05;29.33;;;21.98;;
11829;SDS011;5972;42.134;24.718;2022-12-18T01:58:35;27.60;;;19.92;;
11829;SDS011;5972;42.134;24.718;2022-12-18T02:01:08;23.98;;;19.40;;
11829;SDS011;5972;42.134;24.718;2022-12-18T02:03:35;21.00;;;17.65;;
11829;SDS011;5972;42.134;24.718;2022-12-18T02:06:04;25.27;;;17.35;;
11829;SDS011;5972;42.134;24.718;2022-12-18T02:08:39;21.17;;;17.10;;
11829;SDS011;5972;42.134;24.718;2022-12-18T02:11:14;21.20;;;16.15;;
11829;SDS011;5972;42.134;24.718;2022-12-18T02:13:46;21.45;;;16.90;;
11829;SDS011;5972;42.134;24.718;2022-12-18T02:16:21;20.45;;;16.30;;
11829;SDS011;5972;42.134;24.718;2022-12-18T02:18:56;19.60;;;16.38;;
11829;SDS011;5972;42.134;24.718;2022-12-18T02:21:27;20.73;;;16.88;;
11829;SDS011;5972;42.134;24.718;2022-12-18T02:24:24;21.77;;;16.40;;
11829;SDS011;5972;42.134;24.718;2022-12-18T02:26:58;21.90;;;16.45;;
11829;SDS011;5972;42.134;24.718;2022-12-18T02:29:29;21.25;;;15.63;;
11829;SDS011;5972;42.134;24.718;2022-12-18T02:32:02;20.20;;;14.68;;
11829;SDS011;5972;42.134;24.718;2022-12-18T02:34:32;19.45;;;15.20;;
11829;SDS011;5972;42.134;24.718;2022-12-18T02:37:04;19.20;;;14.50;;
11829;SDS011;5972;42.134;24.718;2022-12-18T02:39:35;18.13;;;14.70;;
11829;SDS011;5972;42.134;24.718;2022-12-18T02:42:07;19.85;;;15.32;;
11829;SDS011;5972;42.134;24.718;2022-12-18T02:44:34;20.42;;;14.90;;
11829;SDS011;5972;42.134;24.718;2022-12-18T02:47:08;22.08;;;14.55;;
11829;SDS011;5972;42.134;24.718;2022-12-18T02:49:40;18.02;;;13.90;;
11829;SDS011;5972;42.134;24.718;2022-12-18T02:52:17;16.85;;;14.27;;
11829;SDS011;5972;42.134;24.718;2022-12-18T02:54:55;16.92;;;13.05;;
11829;SDS011;5972;42.134;24.718;2022-12-18T02:57:31;18.63;;;13.73;;
11829;SDS011;5972;42.134;24.718;2022-12-18T03:00:04;16.45;;;12.98;;
11829;SDS011;5972;42.134;24.718;2022-12-18T03:02:36;17.08;;;13.80;;
11829;SDS011;5972;42.134;24.718;2022-12-18T03:05:08;17.20;;;14.10;;
11829;SDS011;5972;42.134;24.718;2022-12-18T03:07:41;17.38;;;13.55;;
11829;SDS011;5972;42.134;24.718;2022-12-18T03:10:12;17.02;;;13.48;;
11829;SDS011;5972;42.134;24.718;2022-12-18T03:12:44;17.23;;;13.82;;
11829;SDS011;5972;42.134;24.718;2022-12-18T03:15:18;17.33;;;14.13;;
11829;SDS011;5972;42.134;24.718;2022-12-18T03:17:50;16.55;;;13.52;;
11829;SDS011;5972;42.134;24.718;2022-12-18T03:20:21;16.40;;;13.45;;
11829;SDS011;5972;42.134;24.718;2022-12-18T03:22:51;16.13;;;13.43;;
11829;SDS011;5972;42.134;24.718;2022-12-18T03:25:33;17.02;;;12.32;;
11829;SDS011;5972;42.134;24.718;2022-12-18T03:28:06;16.20;;;13.35;;
11829;SDS011;5972;42.134;24.718;2022-12-18T03:30:38;15.63;;;12.98;;
11829;SDS011;5972;42.134;24.718;2022-12-18T03:33:09;16.35;;;12.52;;
11829;SDS011;5972;42.134;24.718;2022-12-18T03:35:41;15.95;;;12.05;;
11829;SDS011;5972;42.134;24.718;2022-12-18T03:38:09;14.15;;;11.73;;
11829;SDS011;5972;42.134;24.718;2022-12-18T03:40:40;13.57;;;11.10;;
11829;SDS011;5972;42.134;24.718;2022-12-18T03:43:18;12.02;;;10.15;;
11829;SDS011;5972;42.134;24.718;2022-12-18T03:45:52;14.65;;;10.80;;
11829;SDS011;5972;42.134;24.718;2022-12-18T03:48:26;12.82;;;11.15;;
11829;SDS011;5972;42.134;24.718;2022-12-18T03:50:57;14.27;;;11.68;;
11829;SDS011;5972;42.134;24.718;2022-12-18T03:53:29;15.13;;;11.60;;
11829;SDS011;5972;42.134;24.718;2022-12-18T03:56:02;15.35;;;11.30;;
11829;SDS011;5972;42.134;24.718;2022-12-18T03:58:32;12.43;;;10.88;;
11829;SDS011;5972;42.134;24.718;2022-12-18T04:01:02;12.50;;;10.15;;
11829;SDS011;5972;42.134;24.718;2022-12-18T04:03:35;10.75;;;9.65;;
11829;SDS011;5972;42.134;24.718;2022-12-18T04:06:03;12.82;;;9.98;;
11829;SDS011;5972;42.134;24.718;2022-12-18T04:08:32;13.63;;;9.50;;
11829;SDS011;5972;42.134;24.718;2022-12-18T04:11:00;10.40;;;9.15;;
11829;SDS011;5972;42.134;24.718;2022-12-18T04:13:28;13.02;;;10.15;;
11829;SDS011;5972;42.134;24.718;2022-12-18T04:15:59;12.20;;;9.63;;
11829;SDS011;5972;42.134;24.718;2022-12-18T04:18:26;11.80;;;9.88;;
11829;SDS011;5972;42.134;24.718;2022-12-18T04:20:53;11.75;;;8.98;;
11829;SDS011;5972;42.134;24.718;2022-12-18T04:23:20;10.85;;;8.63;;
11829;SDS011;5972;42.134;24.718;2022-12-18T04:25:47;11.27;;;8.18;;
11829;SDS011;5972;42.134;24.718;2022-12-18T04:28:14;12.82;;;7.85;;
11829;SDS011;5972;42.134;24.718;2022-12-18T04:30:41;9.18;;;7.50;;
11829;SDS011;5972;42.134;24.718;2022-12-18T04:33:09;10.13;;;7.25;;
11829;SDS011;5972;42.134;24.718;2022-12-18T04:35:37;7.38;;;6.55;;
11829;SDS011;5972;42.134;24.718;2022-12-18T04:38:05;7.18;;;6.47;;
11829;SDS011;5972;42.134;24.718;2022-12-18T04:40:35;8.25;;;7.07;;
11829;SDS011;5972;42.134;24.718;2022-12-18T04:43:02;7.05;;;6.00;;
11829;SDS011;5972;42.134;24.718;2022-12-18T04:45:29;7.40;;;6.38;;
11829;SDS011;5972;42.134;24.718;2022-12-18T04:47:56;6.78;;;5.82;;
11829;SDS011;5972;42.134;24.718;2022-12-18T04:50:24;6.68;;;5.30;;
11829;SDS011;5972;42.134;24.718;2022-12-18T04:52:51;7.13;;;5.45;;
11829;SDS011;5972;42.134;24.718;2022-12-18T04:55:18;5.78;;;4.72;;
11829;SDS011;5972;42.134;24.718;2022-12-18T04:57:45;5.90;;;5.30;;
11829;SDS011;5972;42.134;24.718;2022-12-18T05:00:12;6.20;;;5.43;;
11829;SDS011;5972;42.134;24.718;2022-12-18T05:02:40;5.40;;;4.88;;
11829;SDS011;5972;42.134;24.718;2022-12-18T05:05:07;6.00;;;5.20;;
11829;SDS011;5972;42.134;24.718;2022-12-18T05:07:35;6.72;;;4.88;;
11829;SDS011;5972;42.134;24.718;2022-12-18T05:10:08;4.40;;;4.00;;
11829;SDS011;5972;42.134;24.718;2022-12-18T05:12:35;5.68;;;4.60;;
11829;SDS011;5972;42.134;24.718;2022-12-18T05:15:22;5.00;;;4.50;;
11829;SDS011;5972;42.134;24.718;2022-12-18T05:17:50;6.47;;;5.43;;
11829;SDS011;5972;42.134;24.718;2022-12-18T05:20:17;8.80;;;5.00;;
11829;SDS011;5972;42.134;24.718;2022-12-18T05:22:46;5.68;;;4.95;;
11829;SDS011;5972;42.134;24.718;2022-12-18T05:25:12;6.25;;;5.38;;
11829;SDS011;5972;42.134;24.718;2022-12-18T05:27:40;8.35;;;5.50;;
11829;SDS011;5972;42.134;24.718;2022-12-18T05:30:07;6.82;;;5.38;;
11829;SDS011;5972;42.134;24.718;2022-12-18T05:32:35;6.75;;;5.82;;
11829;SDS011;5972;42.134;24.718;2022-12-18T05:35:04;5.90;;;5.30;;
11829;SDS011;5972;42.134;24.718;2022-12-18T05:37:32;6.75;;;5.80;;
11829;SDS011;5972;42.134;24.718;2022-12-18T05:40:00;6.50;;;5.40;;
11829;SDS011;5972;42.134;24.718;2022-12-18T05:42:27;7.00;;;5.95;;
11829;SDS011;5972;42.134;24.718;2022-12-18T05:44:54;6.07;;;5.45;;
11829;SDS011;5972;42.134;24.718;2022-12-18T05:47:21;6.10;;;5.50;;
11829;SDS011;5972;42.134;24.718;2022-12-18T05:49:48;6.63;;;5.47;;
11829;SDS011;5972;42.134;24.718;2022-12-18T05:52:15;5.97;;;4.93;;
11829;SDS011;5972;42.134;24.718;2022-12-18T05:54:42;6.47;;;4.50;;
11829;SDS011;5972;42.134;24.718;2022-12-18T05:57:10;5.65;;;4.53;;
11829;SDS011;5972;42.134;24.718;2022-12-18T05:59:37;5.80;;;5.07;;
11829;SDS011;5972;42.134;24.718;2022-12-18T06:02:04;6.35;;;4.82;;
11829;SDS011;5972;42.134;24.718;2022-12-18T06:04:30;5.72;;;5.07;;
11829;SDS011;5972;42.134;24.718;2022-12-18T06:06:58;5.53;;;4.82;;
11829;SDS011;5972;42.134;24.718;2022-12-18T06:09:24;6.93;;;5.10;;
11829;SDS011;5972;42.134;24.718;2022-12-18T06:11:51;5.00;;;4.40;;
11829;SDS011;5972;42.134;24.718;2022-12-18T06:14:20;5.93;;;4.50;;
11829;SDS011;5972;42.134;24.718;2022-12-18T06:16:47;6.60;;;4.50;;
11829;SDS011;5972;42.134;24.718;2022-12-18T06:19:14;7.38;;;4.68;;
11829;SDS011;5972;42.134;24.718;2022-12-18T06:21:43;6.28;;;4.85;;
11829;SDS011;5972;42.134;24.718;2022-12-18T06:24:10;5.50;;;4.55;;
11829;SDS011;5972;42.134;24.718;2022-12-18T06:26:37;6.32;;;5.10;;
11829;SDS011;5972;42.134;24.718;2022-12-18T06:29:04;6.53;;;5.18;;
11829;SDS011;5972;42.134;24.718;2022-12-18T06:31:32;7.13;;;5.45;;
11829;SDS011;5972;42.134;24.718;2022-12-18T06:34:01;6.68;;;5.03;;
11829;SDS011;5972;42.134;24.718;2022-12-18T06:36:29;6.18;;;4.80;;
11829;SDS011;5972;42.134;24.718;2022-12-18T06:38:56;5.28;;;4.32;;
11829;SDS011;5972;42.134;24.718;2022-12-18T06:41:23;5.25;;;4.55;;
11829;SDS011;5972;42.134;24.718;2022-12-18T06:43:50;6.47;;;4.90;;
11829;SDS011;5972;42.134;24.718;2022-12-18T06:46:17;6.88;;;4.55;;
11829;SDS011;5972;42.134;24.718;2022-12-18T06:48:47;9.07;;;4.82;;
11829;SDS011;5972;42.134;24.718;2022-12-18T06:51:16;6.93;;;4.65;;
11829;SDS011;5972;42.134;24.718;2022-12-18T06:53:44;6.07;;;4.63;;
11829;SDS011;5972;42.134;24.718;2022-12-18T06:56:11;4.85;;;4.07;;
11829;SDS011;5972;42.134;24.718;2022-12-18T06:58:38;5.45;;;4.72;;
11829;SDS011;5972;42.134;24.718;2022-12-18T07:01:05;5.70;;;4.78;;
11829;SDS011;5972;42.134;24.718;2022-12-18T07:03:34;7.53;;;4.30;;
11829;SDS011;5972;42.134;24.718;2022-12-18T07:06:02;6.60;;;4.40;;
11829;SDS011;5972;42.134;24.718;2022-12-18T07:08:29;4.10;;;3.67;;
11829;SDS011;5972;42.134;24.718;2022-12-18T07:10:56;6.28;;;4.82;;
11829;SDS011;5972;42.134;24.718;2022-12-18T07:13:23;5.20;;;4.70;;
11829;SDS011;5972;42.134;24.718;2022-12-18T07:15:50;5.40;;;4.70;;
11829;SDS011;5972;42.134;24.718;2022-12-18T07:18:17;6.50;;;4.82;;
11829;SDS011;5972;42.134;24.718;2022-12-18T07:20:44;8.38;;;4.65;;
11829;SDS011;5972;42.134;24.718;2022-12-18T07:23:12;9.27;;;4.95;;
11829;SDS011;5972;42.134;24.718;2022-12-18T07:25:38;7.47;;;4.55;;
11829;SDS011;5972;42.134;24.718;2022-12-18T07:28:05;5.03;;;4.45;;
11829;SDS011;5972;42.134;24.718;2022-12-18T07:30:32;5.05;;;4.55;;
11829;SDS011;5972;42.134;24.718;2022-12-18T07:32:59;4.68;;;4.20;;
11829;SDS011;5972;42.134;24.718;2022-12-18T07:35:26;6.45;;;4.45;;
11829;SDS011;5972;42.134;24.718;2022-12-18T07:37:53;5.93;;;4.75;;
11829;SDS011;5972;42.134;24.718;2022-12-18T07:40:21;5.57;;;4.72;;
11829;SDS011;5972;42.134;24.718;2022-12-18T07:42:48;6.00;;;4.55;;
11829;SDS011;5972;42.134;24.718;2022-12-18T07:45:14;6.35;;;4.70;;
11829;SDS011;5972;42.134;24.718;2022-12-18T07:47:41;9.05;;;4.47;;
11829;SDS011;5972;42.134;24.718;2022-12-18T07:50:08;4.70;;;4.20;;
11829;SDS011;5972;42.134;24.718;2022-12-18T07:52:35;5.38;;;4.43;;
11829;SDS011;5972;42.134;24.718;2022-12-18T07:55:02;9.48;;;4.72;;
11829;SDS011;5972;42.134;24.718;2022-12-18T07:57:31;7.10;;;4.90;;
11829;SDS011;5972;42.134;24.718;2022-12-18T07:59:57;7.45;;;5.22;;
11829;SDS011;5972;42.134;24.718;2022-12-18T08:02:24;6.13;;;4.63;;
11829;SDS011;5972;42.134;24.718;2022-12-18T08:04:51;8.05;;;4.65;;
11829;SDS011;5972;42.134;24.718;2022-12-18T08:07:18;6.38;;;4.80;;
11829;SDS011;5972;42.134;24.718;2022-12-18T08:09:44;8.35;;;4.93;;
11829;SDS011;5972;42.134;24.718;2022-12-18T08:12:11;5.90;;;4.53;;
11829;SDS011;5972;42.134;24.718;2022-12-18T08:14:39;7.15;;;5.22;;
11829;SDS011;5972;42.134;24.718;2022-12-18T08:17:06;7.75;;;4.60;;
11829;SDS011;5972;42.134;24.718;2022-12-18T08:19:33;5.43;;;4.88;;
11829;SDS011;5972;42.134;24.718;2022-12-18T08:22:00;7.32;;;4.70;;
11829;SDS011;5972;42.134;24.718;2022-12-18T08:24:26;6.03;;;4.70;;
11829;SDS011;5972;42.134;24.718;2022-12-18T08:26:53;5.13;;;4.60;;
11829;SDS011;5972;42.134;24.718;2022-12-18T08:29:22;7.05;;;4.78;;
11829;SDS011;5972;42.134;24.718;2022-12-18T08:31:50;6.30;;;4.93;;
11829;SDS011;5972;42.134;24.718;2022-12-18T08:34:17;6.40;;;5.00;;
11829;SDS011;5972;42.134;24.718;2022-12-18T08:36:44;6.20;;;4.93;;
11829;SDS011;5972;42.134;24.718;2022-12-18T08:39:11;7.60;;;4.97;;
11829;SDS011;5972;42.134;24.718;2022-12-18T08:41:38;8.50;;;5.68;;
11829;SDS011;5972;42.134;24.718;2022-12-18T08:44:04;6.15;;;5.45;;
11829;SDS011;5972;42.134;24.718;2022-12-18T08:47:06;6.18;;;5.00;;
11829;SDS011;5972;42.134;24.718;2022-12-18T08:49:33;9.05;;;5.32;;
11829;SDS011;5972;42.134;24.718;2022-12-18T08:52:01;5.63;;;4.68;;
11829;SDS011;5972;42.134;24.718;2022-12-18T08:54:28;9.32;;;5.50;;
11829;SDS011;5972;42.134;24.718;2022-12-18T08:56:55;10.52;;;5.22;;
11829;SDS011;5972;42.134;24.718;2022-12-18T08:59:22;6.30;;;4.50;;
11829;SDS011;5972;42.134;24.718;2022-12-18T09:01:49;7.97;;;5.30;;
11829;SDS011;5972;42.134;24.718;2022-12-18T09:04:17;8.88;;;5.00;;
11829;SDS011;5972;42.134;24.718;2022-12-18T09:06:44;8.50;;;5.32;;
11829;SDS011;5972;42.134;24.718;2022-12-18T09:09:11;6.70;;;4.72;;
11829;SDS011;5972;42.134;24.718;2022-12-18T09:11:38;6.60;;;4.22;;
11829;SDS011;5972;42.134;24.718;2022-12-18T09:14:05;10.02;;;5.35;;
11829;SDS011;5972;42.134;24.718;2022-12-18T09:16:32;10.20;;;5.03;;
11829;SDS011;5972;42.134;24.718;2022-12-18T09:19:00;7.10;;;5.00;;
11829;SDS011;5972;42.134;24.718;2022-12-18T09:21:30;5.75;;;4.80;;
11829;SDS011;5972;42.134;24.718;2022-12-18T09:23:58;9.60;;;5.07;;
11829;SDS011;5972;42.134;24.718;2022-12-18T09:26:25;7.47;;;4.88;;
11829;SDS011;5972;42.134;24.718;2022-12-18T09:28:52;6.32;;;5.18;;
11829;SDS011;5972;42.134;24.718;2022-12-18T09:31:21;6.63;;;5.05;;
11829;SDS011;5972;42.134;24.718;2022-12-18T09:33:48;6.97;;;5.28;;
11829;SDS011;5972;42.134;24.718;2022-12-18T09:36:16;13.80;;;5.63;;
11829;SDS011;5972;42.134;24.718;2022-12-18T09:38:45;6.88;;;5.38;;
11829;SDS011;5972;42.134;24.718;2022-12-18T09:41:17;6.45;;;5.28;;
11829;SDS011;5972;42.134;24.718;2022-12-18T09:44:00;9.70;;;5.88;;
11829;SDS011;5972;42.134;24.718;2022-12-18T09:46:32;7.60;;;5.75;;
11829;SDS011;5972;42.134;24.718;2022-12-18T09:49:03;9.43;;;6.10;;
11829;SDS011;5972;42.134;24.718;2022-12-18T09:51:37;8.10;;;5.65;;
11829;SDS011;5972;42.134;24.718;2022-12-18T09:54:11;9.93;;;6.18;;
11829;SDS011;5972;42.134;24.718;2022-12-18T09:56:41;7.07;;;5.88;;
11829;SDS011;5972;42.134;24.718;2022-12-18T09:59:14;10.07;;;6.07;;
11829;SDS011;5972;42.134;24.718;2022-12-18T10:01:47;6.72;;;5.63;;
11829;SDS011;5972;42.134;24.718;2022-12-18T10:04:14;8.00;;;6.05;;
11829;SDS011;5972;42.134;24.718;2022-12-18T10:06:42;7.50;;;6.00;;
11829;SDS011;5972;42.134;24.718;2022-12-18T10:09:19;10.02;;;5.25;;
11829;SDS011;5972;42.134;24.718;2022-12-18T10:11:56;12.90;;;6.50;;
11829;SDS011;5972;42.134;24.718;2022-12-18T10:14:34;8.93;;;5.97;;
11829;SDS011;5972;42.134;24.718;2022-12-18T10:17:09;6.47;;;5.70;;
11829;SDS011;5972;42.134;24.718;2022-12-18T10:19:46;7.38;;;5.47;;
11829;SDS011;5972;42.134;24.718;2022-12-18T10:22:20;11.57;;;5.47;;
11829;SDS011;5972;42.134;24.718;2022-12-18T10:24:59;9.48;;;5.20;;
11829;SDS011;5972;42.134;24.718;2022-12-18T10:27:30;7.90;;;5.97;;
11829;SDS011;5972;42.134;24.718;2022-12-18T10:29:58;7.03;;;5.22;;
11829;SDS011;5972;42.134;24.718;2022-12-18T10:32:27;7.85;;;5.57;;
11829;SDS011;5972;42.134;24.718;2022-12-18T10:34:56;12.18;;;5.43;;
11829;SDS011;5972;42.134;24.718;2022-12-18T10:37:24;7.20;;;5.40;;
11829;SDS011;5972;42.134;24.718;2022-12-18T10:40:07;6.75;;;5.03;;
11829;SDS011;5972;42.134;24.718;2022-12-18T10:42:37;10.65;;;6.50;;
11829;SDS011;5972;42.134;24.718;2022-12-18T10:45:11;7.30;;;5.45;;
11829;SDS011;5972;42.134;24.718;2022-12-18T10:47:41;10.90;;;6.47;;
11829;SDS011;5972;42.134;24.718;2022-12-18T10:50:17;11.48;;;6.32;;
11829;SDS011;5972;42.134;24.718;2022-12-18T10:52:53;9.32;;;5.32;;
11829;SDS011;5972;42.134;24.718;2022-12-18T10:55:23;7.43;;;5.60;;
11829;SDS011;5972;42.134;24.718;2022-12-18T10:57:53;9.82;;;6.07;;
11829;SDS011;5972;42.134;24.718;2022-12-18T11:00:39;7.72;;;5.88;;
11829;SDS011;5972;42.134;24.718;2022-12-18T11:03:12;8.43;;;6.55;;
11829;SDS011;5972;42.134;24.718;2022-12-18T11:06:04;8.93;;;6.70;;
11829;SDS011;5972;42.134;24.718;2022-12-18T11:08:32;8.77;;;6.78;;
11829;SDS011;5972;42.134;24.718;2022-12-18T11:11:01;10.50;;;7.88;;
11829;SDS011;5972;42.134;24.718;2022-12-18T11:13:28;10.07;;;7.70;;
11829;SDS011;5972;42.134;24.718;2022-12-18T11:15:57;9.13;;;7.00;;
11829;SDS011;5972;42.134;24.718;2022-12-18T11:18:25;13.90;;;9.38;;
11829;SDS011;5972;42.134;24.718;2022-12-18T11:20:55;8.68;;;7.32;;
11829;SDS011;5972;42.134;24.718;2022-12-18T11:23:24;11.65;;;7.05;;
11829;SDS011;5972;42.134;24.718;2022-12-18T11:26:03;7.75;;;6.70;;
11829;SDS011;5972;42.134;24.718;2022-12-18T11:28:37;9.70;;;7.10;;
11829;SDS011;5972;42.134;24.718;2022-12-18T11:31:16;8.38;;;6.53;;
11829;SDS011;5972;42.134;24.718;2022-12-18T11:33:47;8.70;;;6.30;;
11829;SDS011;5972;42.134;24.718;2022-12-18T11:36:19;9.48;;;6.28;;
11829;SDS011;5972;42.134;24.718;2022-12-18T11:38:48;8.30;;;6.20;;
11829;SDS011;5972;42.134;24.718;2022-12-18T11:41:23;8.32;;;6.40;;
11829;SDS011;5972;42.134;24.718;2022-12-18T11:44:15;9.50;;;7.03;;
11829;SDS011;5972;42.134;24.718;2022-12-18T11:46:49;7.03;;;5.93;;
11829;SDS011;5972;42.134;24.718;2022-12-18T11:49:22;8.82;;;6.80;;
11829;SDS011;5972;42.134;24.718;2022-12-18T11:51:54;12.73;;;8.45;;
11829;SDS011;5972;42.134;24.718;2022-12-18T11:54:26;8.13;;;6.82;;
11829;SDS011;5972;42.134;24.718;2022-12-18T11:56:55;12.07;;;7.07;;
11829;SDS011;5972;42.134;24.718;2022-12-18T11:59:28;7.18;;;6.00;;
11829;SDS011;5972;42.134;24.718;2022-12-18T12:02:11;8.00;;;6.10;;
11829;SDS011;5972;42.134;24.718;2022-12-18T12:04:59;9.13;;;6.15;;
11829;SDS011;5972;42.134;24.718;2022-12-18T12:07:38;7.15;;;5.68;;
11829;SDS011;5972;42.134;24.718;2022-12-18T12:10:17;8.02;;;5.82;;
11829;SDS011;5972;42.134;24.718;2022-12-18T12:13:03;8.00;;;6.15;;
11829;SDS011;5972;42.134;24.718;2022-12-18T12:15:43;9.02;;;6.00;;
11829;SDS011;5972;42.134;24.718;2022-12-18T12:18:24;8.88;;;5.50;;
11829;SDS011;5972;42.134;24.718;2022-12-18T12:21:03;9.25;;;6.45;;
11829;SDS011;5972;42.134;24.718;2022-12-18T12:23:38;7.30;;;6.20;;
11829;SDS011;5972;42.134;24.718;2022-12-18T12:26:11;8.23;;;6.13;;
11829;SDS011;5972;42.134;24.718;2022-12-18T12:28:55;10.18;;;6.63;;
11829;SDS011;5972;42.134;24.718;2022-12-18T12:31:35;9.02;;;5.97;;
11829;SDS011;5972;42.134;24.718;2022-12-18T12:34:11;10.18;;;6.25;;
11829;SDS011;5972;42.134;24.718;2022-12-18T12:36:48;9.15;;;6.78;;
11829;SDS011;5972;42.134;24.718;2022-12-18T12:39:27;7.63;;;6.07;;
11829;SDS011;5972;42.134;24.718;2022-12-18T12:41:59;11.95;;;6.90;;
11829;SDS011;5972;42.134;24.718;2022-12-18T12:44:47;8.35;;;6.55;;
11829;SDS011;5972;42.134;24.718;2022-12-18T12:47:19;9.52;;;7.07;;
11829;SDS011;5972;42.134;24.718;2022-12-18T12:49:49;8.48;;;6.40;;
11829;SDS011;5972;42.134;24.718;2022-12-18T12:52:17;9.43;;;6.50;;
11829;SDS011;5972;42.134;24.718;2022-12-18T12:54:53;8.57;;;6.30;;
11829;SDS011;5972;42.134;24.718;2022-12-18T12:57:22;6.88;;;5.93;;
11829;SDS011;5972;42.134;24.718;2022-12-18T12:59:58;7.93;;;6.28;;
11829;SDS011;5972;42.134;24.718;2022-12-18T13:02:30;8.23;;;6.32;;
11829;SDS011;5972;42.134;24.718;2022-12-18T13:05:03;8.23;;;6.07;;
11829;SDS011;5972;42.134;24.718;2022-12-18T13:07:37;8.73;;;6.90;;
11829;SDS011;5972;42.134;24.718;2022-12-18T13:10:19;9.27;;;7.18;;
11829;SDS011;5972;42.134;24.718;2022-12-18T13:12:56;10.85;;;7.07;;
11829;SDS011;5972;42.134;24.718;2022-12-18T13:15:26;11.07;;;8.40;;
11829;SDS011;5972;42.134;24.718;2022-12-18T13:20:44;9.50;;;7.95;;
11829;SDS011;5972;42.134;24.718;2022-12-18T13:23:25;9.27;;;7.93;;
11829;SDS011;5972;42.134;24.718;2022-12-18T13:25:55;10.55;;;8.15;;
11829;SDS011;5972;42.134;24.718;2022-12-18T13:28:22;8.60;;;6.60;;
11829;SDS011;5972;42.134;24.718;2022-12-18T13:31:12;9.32;;;7.70;;
11829;SDS011;5972;42.134;24.718;2022-12-18T13:33:42;11.57;;;7.88;;
11829;SDS011;5972;42.134;24.718;2022-12-18T13:36:14;9.82;;;8.27;;
11829;SDS011;5972;42.134;24.718;2022-12-18T13:39:15;12.10;;;9.13;;
11829;SDS011;5972;42.134;24.718;2022-12-18T13:41:49;11.98;;;8.73;;
11829;SDS011;5972;42.134;24.718;2022-12-18T13:44:30;11.10;;;9.18;;
11829;SDS011;5972;42.134;24.718;2022-12-18T13:47:00;12.18;;;8.63;;
11829;SDS011;5972;42.134;24.718;2022-12-18T13:49:30;14.07;;;7.65;;
11829;SDS011;5972;42.134;24.718;2022-12-18T13:52:14;9.85;;;7.72;;
11829;SDS011;5972;42.134;24.718;2022-12-18T13:54:44;11.13;;;8.00;;
11829;SDS011;5972;42.134;24.718;2022-12-18T13:57:25;11.55;;;8.38;;
11829;SDS011;5972;42.134;24.718;2022-12-18T13:59:54;10.57;;;8.27;;
11829;SDS011;5972;42.134;24.718;2022-12-18T14:02:23;12.90;;;8.75;;
11829;SDS011;5972;42.134;24.718;2022-12-18T14:04:51;12.75;;;7.95;;
11829;SDS011;5972;42.134;24.718;2022-12-18T14:07:19;10.93;;;7.72;;
11829;SDS011;5972;42.134;24.718;2022-12-18T14:09:50;11.32;;;8.40;;
11829;SDS011;5972;42.134;24.718;2022-12-18T14:12:20;10.23;;;8.05;;
11829;SDS011;5972;42.134;24.718;2022-12-18T14:15:07;12.88;;;8.32;;
11829;SDS011;5972;42.134;24.718;2022-12-18T14:17:48;12.52;;;8.23;;
11829;SDS011;5972;42.134;24.718;2022-12-18T14:20:16;11.38;;;8.80;;
11829;SDS011;5972;42.134;24.718;2022-12-18T14:22:44;11.45;;;8.70;;
11829;SDS011;5972;42.134;24.718;2022-12-18T14:25:17;11.90;;;8.38;;
11829;SDS011;5972;42.134;24.718;2022-12-18T14:27:46;11.82;;;8.93;;
11829;SDS011;5972;42.134;24.718;2022-12-18T14:30:23;13.40;;;8.93;;
11829;SDS011;5972;42.134;24.718;2022-12-18T14:33:03;12.25;;;8.93;;
11829;SDS011;5972;42.134;24.718;2022-12-18T14:35:31;18.20;;;8.35;;
11829;SDS011;5972;42.134;24.718;2022-12-18T14:38:18;12.25;;;9.00;;
11829;SDS011;5972;42.134;24.718;2022-12-18T14:40:47;12.23;;;9.13;;
11829;SDS011;5972;42.134;24.718;2022-12-18T14:43:18;12.18;;;9.27;;
11829;SDS011;5972;42.134;24.718;2022-12-18T14:45:45;11.75;;;8.90;;
11829;SDS011;5972;42.134;24.718;2022-12-18T14:48:15;13.20;;;9.80;;
11829;SDS011;5972;42.134;24.718;2022-12-18T14:50:43;15.27;;;9.63;;
11829;SDS011;5972;42.134;24.718;2022-12-18T14:53:21;15.85;;;10.68;;
11829;SDS011;5972;42.134;24.718;2022-12-18T14:55:52;15.70;;;11.63;;
11829;SDS011;5972;42.134;24.718;2022-12-18T14:58:19;15.80;;;10.93;;
11829;SDS011;5972;42.134;24.718;2022-12-18T15:00:46;15.40;;;11.02;;
11829;SDS011;5972;42.134;24.718;2022-12-18T15:03:15;15.73;;;10.50;;
11829;SDS011;5972;42.134;24.718;2022-12-18T15:05:45;17.35;;;10.88;;